sensor_id;sensor_type;location;lat;lon;timestamp;pressure;altitude;pressure_sealevel;temperature;humidity
36828;BME280;22766;48.042;11.192;2023-02-24T00:02:02;94521.50;;;1.31;100.00
36828;BME280;22766;48.042;11.192;2023-02-24T00:04:35;94523.56;;;1.26;100.00
36828;BME280;22766;48.042;11.192;2023-02-24T00:07:04;94523.34;;;1.29;100.00
36828;BME280;22766;48.042;11.192;2023-02-24T00:09:31;94523.13;;;1.32;100.00
36828;BME280;22766;48.042;11.192;2023-02-24T00:12:04;94523.72;;;1.36;100.00
36828;BME280;22766;48.042;11.192;2023-02-24T00:14:34;94530.50;;;1.24;100.00
36828;BME280;22766;48.042;11.192;2023-02-24T00:17:01;94528.78;;;1.25;100.00
36828;BME280;22766;48.042;11.192;2023-02-24T00:19:29;94528.19;;;1.21;100.00
36828;BME280;22766;48.042;11.192;2023-02-24T00:22:01;94528.78;;;1.25;100.00
36828;BME280;22766;48.042;11.192;2023-02-24T00:24:29;94527.53;;;1.30;100.00
36828;BME280;22766;48.042;11.192;2023-02-24T00:26:58;94514.38;;;1.36;100.00
36828;BME280;22766;48.042;11.192;2023-02-24T00:29:27;94515.88;;;1.39;100.00
36828;BME280;22766;48.042;11.192;2023-02-24T00:31:56;94520.63;;;1.43;100.00
36828;BME280;22766;48.042;11.192;2023-02-24T00:34:28;94509.81;;;1.52;100.00
36828;BME280;22766;48.042;11.192;2023-02-24T00:36:57;94512.94;;;1.56;100.00
36828;BME280;22766;48.042;11.192;2023-02-24T00:39:24;94508.06;;;1.53;100.00
36828;BME280;22766;48.042;11.192;2023-02-24T00:42:02;94501.38;;;1.52;100.00
36828;BME280;22766;48.042;11.192;2023-02-24T00:44:43;94504.72;;;1.52;100.00
36828;BME280;22766;48.042;11.192;2023-02-24T00:47:11;94509.59;;;1.55;100.00
36828;BME280;22766;48.042;11.192;2023-02-24T00:49:39;94504.97;;;1.60;100.00
36828;BME280;22766;48.042;11.192;2023-02-24T00:52:17;94494.47;;;1.65;100.00
36828;BME280;22766;48.042;11.192;2023-02-24T00:54:47;94499.00;;;1.61;100.00
36828;BME280;22766;48.042;11.192;2023-02-24T00:57:14;94490.88;;;1.67;100.00
36828;BME280;22766;48.042;11.192;2023-02-24T00:59:43;94490.09;;;1.67;100.00
36828;BME280;22766;48.042;11.192;2023-02-24T01:02:13;94483.03;;;1.70;100.00
36828;BME280;22766;48.042;11.192;2023-02-24T01:04:42;94480.94;;;1.64;100.00
36828;BME280;22766;48.042;11.192;2023-02-24T01:07:11;94481.06;;;1.63;100.00
36828;BME280;22766;48.042;11.192;2023-02-24T01:09:39;94480.47;;;1.59;100.00
36828;BME280;22766;48.042;11.192;2023-02-24T01:12:09;94469.69;;;1.56;100.00
36828;BME280;22766;48.042;11.192;2023-02-24T01:14:55;94473.47;;;1.50;100.00
36828;BME280;22766;48.042;11.192;2023-02-24T01:17:22;94467.13;;;1.45;100.00
36828;BME280;22766;48.042;11.192;2023-02-24T01:19:49;94466.91;;;1.48;100.00
36828;BME280;22766;48.042;11.192;2023-02-24T01:22:17;94460.78;;;1.50;100.00
36828;BME280;22766;48.042;11.192;2023-02-24T01:24:45;94457.63;;;1.47;100.00
36828;BME280;22766;48.042;11.192;2023-02-24T01:27:13;94460.97;;;1.36;100.00
36828;BME280;22766;48.042;11.192;2023-02-24T01:29:40;94457.47;;;1.26;100.00
36828;BME280;22766;48.042;11.192;2023-02-24T01:32:13;94457.03;;;1.09;100.00
36828;BME280;22766;48.042;11.192;2023-02-24T01:34:43;94457.09;;;0.96;100.00
36828;BME280;22766;48.042;11.192;2023-02-24T01:37:10;94454.16;;;0.89;100.00
36828;BME280;22766;48.042;11.192;2023-02-24T01:39:43;94447.72;;;0.85;100.00
36828;BME280;22766;48.042;11.192;2023-02-24T01:42:15;94442.63;;;0.85;100.00
36828;BME280;22766;48.042;11.192;2023-02-24T01:47:14;94452.75;;;0.62;100.00
36828;BME280;22766;48.042;11.192;2023-02-24T01:49:45;94450.34;;;0.48;100.00
36828;BME280;22766;48.042;11.192;2023-02-24T01:52:16;94445.50;;;0.45;100.00
36828;BME280;22766;48.042;11.192;2023-02-24T01:54:49;94441.13;;;0.47;100.00
36828;BME280;22766;48.042;11.192;2023-02-24T01:57:22;94443.25;;;0.40;100.00
36828;BME280;22766;48.042;11.192;2023-02-24T01:59:52;94444.81;;;0.30;100.00
36828;BME280;22766;48.042;11.192;2023-02-24T02:02:21;94434.03;;;0.27;100.00
36828;BME280;22766;48.042;11.192;2023-02-24T02:04:55;94432.53;;;0.24;100.00
36828;BME280;22766;48.042;11.192;2023-02-24T02:07:26;94428.28;;;0.25;100.00
36828;BME280;22766;48.042;11.192;2023-02-24T02:09:54;94430.00;;;0.12;100.00
36828;BME280;22766;48.042;11.192;2023-02-24T02:12:26;94428.00;;;0.04;100.00
36828;BME280;22766;48.042;11.192;2023-02-24T02:14:55;94422.72;;;0.07;100.00
36828;BME280;22766;48.042;11.192;2023-02-24T02:37:09;94418.69;;;0.41;100.00
36828;BME280;22766;48.042;11.192;2023-02-24T02:39:50;94423.38;;;0.34;100.00
36828;BME280;22766;48.042;11.192;2023-02-24T02:45:03;94421.50;;;0.13;100.00
36828;BME280;22766;48.042;11.192;2023-02-24T02:53:10;94419.38;;;-0.19;100.00
36828;BME280;22766;48.042;11.192;2023-02-24T02:55:45;94411.78;;;-0.19;100.00
36828;BME280;22766;48.042;11.192;2023-02-24T02:58:20;94413.59;;;-0.21;100.00
36828;BME280;22766;48.042;11.192;2023-02-24T03:00:51;94408.94;;;-0.14;100.00
36828;BME280;22766;48.042;11.192;2023-02-24T03:03:38;94410.38;;;-0.10;100.00
36828;BME280;22766;48.042;11.192;2023-02-24T03:06:13;94411.78;;;-0.06;100.00
36828;BME280;22766;48.042;11.192;2023-02-24T03:08:49;94407.41;;;-0.04;100.00
36828;BME280;22766;48.042;11.192;2023-02-24T03:11:20;94415.75;;;-0.02;100.00
36828;BME280;22766;48.042;11.192;2023-02-24T03:13:50;94410.03;;;-0.06;100.00
36828;BME280;22766;48.042;11.192;2023-02-24T03:16:22;94404.25;;;-0.08;100.00
36828;BME280;22766;48.042;11.192;2023-02-24T03:18:58;94411.84;;;-0.08;100.00
36828;BME280;22766;48.042;11.192;2023-02-24T03:21:36;94408.66;;;-0.10;100.00
36828;BME280;22766;48.042;11.192;2023-02-24T03:24:04;94409.25;;;-0.06;100.00
36828;BME280;22766;48.042;11.192;2023-02-24T03:26:48;94410.44;;;0.01;100.00
36828;BME280;22766;48.042;11.192;2023-02-24T03:29:36;94402.94;;;-0.13;100.00
36828;BME280;22766;48.042;11.192;2023-02-24T03:32:13;94401.75;;;-0.20;100.00
36828;BME280;22766;48.042;11.192;2023-02-24T03:37:25;94398.63;;;-0.36;100.00
36828;BME280;22766;48.042;11.192;2023-02-24T03:40:01;94401.66;;;-0.44;100.00
36828;BME280;22766;48.042;11.192;2023-02-24T03:42:40;94396.88;;;-0.48;100.00
36828;BME280;22766;48.042;11.192;2023-02-24T03:45:09;94395.78;;;-0.44;100.00
36828;BME280;22766;48.042;11.192;2023-02-24T03:47:37;94389.88;;;-0.45;100.00
36828;BME280;22766;48.042;11.192;2023-02-24T03:50:15;94393.34;;;-0.46;100.00
36828;BME280;22766;48.042;11.192;2023-02-24T03:58:14;94389.06;;;-0.45;100.00
36828;BME280;22766;48.042;11.192;2023-02-24T04:01:13;94390.59;;;-0.43;100.00
36828;BME280;22766;48.042;11.192;2023-02-24T04:04:02;94390.38;;;-0.40;100.00
36828;BME280;22766;48.042;11.192;2023-02-24T04:09:27;94384.78;;;-0.32;100.00
36828;BME280;22766;48.042;11.192;2023-02-24T04:12:20;94382.78;;;-0.40;100.00
36828;BME280;22766;48.042;11.192;2023-02-24T04:14:57;94379.44;;;-0.53;100.00
36828;BME280;22766;48.042;11.192;2023-02-24T04:17:43;94374.97;;;-0.62;100.00
36828;BME280;22766;48.042;11.192;2023-02-24T04:20:16;94382.38;;;-0.59;100.00
36828;BME280;22766;48.042;11.192;2023-02-24T04:22:58;94377.81;;;-0.54;100.00
36828;BME280;22766;48.042;11.192;2023-02-24T04:25:29;94368.06;;;-0.47;100.00
36828;BME280;22766;48.042;11.192;2023-02-24T04:27:58;94366.66;;;-0.51;100.00
36828;BME280;22766;48.042;11.192;2023-02-24T04:30:30;94362.00;;;-0.57;100.00
36828;BME280;22766;48.042;11.192;2023-02-24T04:33:00;94362.00;;;-0.57;100.00
36828;BME280;22766;48.042;11.192;2023-02-24T04:35:27;94362.81;;;-0.69;100.00
36828;BME280;22766;48.042;11.192;2023-02-24T04:37:55;94361.19;;;-0.70;100.00
36828;BME280;22766;48.042;11.192;2023-02-24T04:40:23;94344.97;;;-0.68;100.00
36828;BME280;22766;48.042;11.192;2023-02-24T04:42:52;94349.13;;;-0.67;100.00
36828;BME280;22766;48.042;11.192;2023-02-24T04:45:24;94344.56;;;-0.62;100.00
36828;BME280;22766;48.042;11.192;2023-02-24T04:47:55;94346.19;;;-0.61;100.00
36828;BME280;22766;48.042;11.192;2023-02-24T04:50:24;94334.91;;;-0.57;100.00
36828;BME280;22766;48.042;11.192;2023-02-24T04:52:59;94333.91;;;-0.54;100.00
36828;BME280;22766;48.042;11.192;2023-02-24T04:55:28;94325.28;;;-0.52;100.00
36828;BME280;22766;48.042;11.192;2023-02-24T04:58:00;94324.78;;;-0.44;100.00
36828;BME280;22766;48.042;11.192;2023-02-24T05:00:28;94324.63;;;-0.30;100.00
36828;BME280;22766;48.042;11.192;2023-02-24T05:03:03;94317.84;;;-0.30;100.00
36828;BME280;22766;48.042;11.192;2023-02-24T05:05:31;94314.59;;;-0.32;100.00
36828;BME280;22766;48.042;11.192;2023-02-24T05:08:07;94310.94;;;-0.28;100.00
36828;BME280;22766;48.042;11.192;2023-02-24T05:10:40;94304.88;;;-0.25;100.00
36828;BME280;22766;48.042;11.192;2023-02-24T05:13:07;94306.75;;;-0.16;100.00
36828;BME280;22766;48.042;11.192;2023-02-24T05:15:38;94306.13;;;-0.07;100.00
36828;BME280;22766;48.042;11.192;2023-02-24T05:18:07;94307.72;;;0.07;100.00
36828;BME280;22766;48.042;11.192;2023-02-24T05:20:35;94312.47;;;0.11;100.00
36828;BME280;22766;48.042;11.192;2023-02-24T05:23:31;94302.56;;;0.19;100.00
36828;BME280;22766;48.042;11.192;2023-02-24T05:26:03;94308.75;;;0.28;100.00
36828;BME280;22766;48.042;11.192;2023-02-24T05:28:36;94308.31;;;0.34;100.00
36828;BME280;22766;48.042;11.192;2023-02-24T05:31:15;94295.63;;;0.34;100.00
36828;BME280;22766;48.042;11.192;2023-02-24T05:33:44;94291.97;;;0.38;100.00
36828;BME280;22766;48.042;11.192;2023-02-24T05:36:13;94287.59;;;0.40;100.00
36828;BME280;22766;48.042;11.192;2023-02-24T05:38:44;94285.41;;;0.46;100.00
36828;BME280;22766;48.042;11.192;2023-02-24T05:41:13;94285.34;;;0.59;100.00
36828;BME280;22766;48.042;11.192;2023-02-24T05:43:51;94276.47;;;0.64;100.00
36828;BME280;22766;48.042;11.192;2023-02-24T05:46:25;94279.59;;;0.68;100.00
36828;BME280;22766;48.042;11.192;2023-02-24T05:48:55;94270.72;;;0.73;100.00
36828;BME280;22766;48.042;11.192;2023-02-24T05:51:32;94276.38;;;0.77;100.00
36828;BME280;22766;48.042;11.192;2023-02-24T05:54:03;94272.25;;;0.76;100.00
36828;BME280;22766;48.042;11.192;2023-02-24T05:56:31;94263.94;;;0.74;100.00
36828;BME280;22766;48.042;11.192;2023-02-24T05:59:00;94270.84;;;0.72;100.00
36828;BME280;22766;48.042;11.192;2023-02-24T06:01:32;94262.41;;;0.71;100.00
36828;BME280;22766;48.042;11.192;2023-02-24T06:04:05;94269.22;;;0.71;100.00
36828;BME280;22766;48.042;11.192;2023-02-24T06:06:36;94269.44;;;0.68;100.00
36828;BME280;22766;48.042;11.192;2023-02-24T06:09:05;94263.22;;;0.72;100.00
36828;BME280;22766;48.042;11.192;2023-02-24T06:11:34;94264.72;;;0.74;100.00
36828;BME280;22766;48.042;11.192;2023-02-24T06:14:01;94268.31;;;0.72;100.00
36828;BME280;22766;48.042;11.192;2023-02-24T06:16:28;94265.19;;;0.68;100.00
36828;BME280;22766;48.042;11.192;2023-02-24T06:18:55;94262.72;;;0.67;100.00
36828;BME280;22766;48.042;11.192;2023-02-24T06:21:23;94263.53;;;0.67;100.00
36828;BME280;22766;48.042;11.192;2023-02-24T06:23:55;94266.09;;;0.67;100.00
36828;BME280;22766;48.042;11.192;2023-02-24T06:26:24;94275.53;;;0.65;100.00
36828;BME280;22766;48.042;11.192;2023-02-24T06:28:56;94277.50;;;0.62;100.00
36828;BME280;22766;48.042;11.192;2023-02-24T06:31:24;94273.88;;;0.53;100.00
36828;BME280;22766;48.042;11.192;2023-02-24T06:33:51;94280.50;;;0.67;100.00
36828;BME280;22766;48.042;11.192;2023-02-24T06:36:19;94280.19;;;0.71;100.00
36828;BME280;22766;48.042;11.192;2023-02-24T06:38:46;94274.00;;;0.86;100.00
36828;BME280;22766;48.042;11.192;2023-02-24T06:41:15;94273.19;;;0.97;100.00
36828;BME280;22766;48.042;11.192;2023-02-24T06:43:43;94282.34;;;1.00;100.00
36828;BME280;22766;48.042;11.192;2023-02-24T06:46:12;94278.84;;;0.89;100.00
36828;BME280;22766;48.042;11.192;2023-02-24T06:48:40;94279.78;;;0.88;100.00
36828;BME280;22766;48.042;11.192;2023-02-24T06:51:12;94282.31;;;0.88;100.00
36828;BME280;22766;48.042;11.192;2023-02-24T06:53:39;94268.59;;;0.91;100.00
36828;BME280;22766;48.042;11.192;2023-02-24T06:56:11;94276.22;;;0.91;100.00
36828;BME280;22766;48.042;11.192;2023-02-24T06:58:45;94282.44;;;0.98;100.00
36828;BME280;22766;48.042;11.192;2023-02-24T07:01:15;94281.06;;;1.05;100.00
36828;BME280;22766;48.042;11.192;2023-02-24T07:03:43;94278.41;;;1.07;100.00
36828;BME280;22766;48.042;11.192;2023-02-24T07:06:49;94279.81;;;1.11;100.00
36828;BME280;22766;48.042;11.192;2023-02-24T07:09:21;94284.91;;;1.22;100.00
36828;BME280;22766;48.042;11.192;2023-02-24T07:11:49;94285.97;;;1.30;100.00
36828;BME280;22766;48.042;11.192;2023-02-24T07:14:23;94284.25;;;1.42;100.00
36828;BME280;22766;48.042;11.192;2023-02-24T07:16:51;94282.63;;;1.52;100.00
36828;BME280;22766;48.042;11.192;2023-02-24T07:19:22;94279.84;;;1.66;100.00
36828;BME280;22766;48.042;11.192;2023-02-24T07:21:54;94272.31;;;1.75;100.00
36828;BME280;22766;48.042;11.192;2023-02-24T07:24:28;94269.66;;;1.88;100.00
36828;BME280;22766;48.042;11.192;2023-02-24T07:27:14;94266.59;;;1.94;100.00
36828;BME280;22766;48.042;11.192;2023-02-24T07:29:50;94268.81;;;1.99;100.00
36828;BME280;22766;48.042;11.192;2023-02-24T07:32:20;94266.34;;;2.08;100.00
36828;BME280;22766;48.042;11.192;2023-02-24T07:34:51;94265.41;;;2.20;100.00
36828;BME280;22766;48.042;11.192;2023-02-24T07:37:20;94260.41;;;2.30;100.00
36828;BME280;22766;48.042;11.192;2023-02-24T07:39:49;94256.13;;;2.51;100.00
36828;BME280;22766;48.042;11.192;2023-02-24T07:42:17;94251.16;;;2.81;100.00
36828;BME280;22766;48.042;11.192;2023-02-24T07:44:44;94258.88;;;2.91;100.00
36828;BME280;22766;48.042;11.192;2023-02-24T07:47:12;94251.44;;;2.88;100.00
36828;BME280;22766;48.042;11.192;2023-02-24T07:49:41;94260.88;;;2.97;100.00
36828;BME280;22766;48.042;11.192;2023-02-24T07:52:08;94256.19;;;2.92;100.00
36828;BME280;22766;48.042;11.192;2023-02-24T07:54:37;94248.22;;;2.85;100.00
36828;BME280;22766;48.042;11.192;2023-02-24T07:57:04;94238.34;;;2.71;100.00
36828;BME280;22766;48.042;11.192;2023-02-24T07:59:33;94240.22;;;2.58;100.00
36828;BME280;22766;48.042;11.192;2023-02-24T08:02:03;94246.97;;;2.59;100.00
36828;BME280;22766;48.042;11.192;2023-02-24T08:04:33;94240.00;;;2.61;100.00
36828;BME280;22766;48.042;11.192;2023-02-24T08:07:02;94244.47;;;2.69;100.00
36828;BME280;22766;48.042;11.192;2023-02-24T08:09:31;94244.56;;;2.78;100.00
36828;BME280;22766;48.042;11.192;2023-02-24T08:12:19;94240.63;;;2.95;100.00
36828;BME280;22766;48.042;11.192;2023-02-24T08:14:49;94237.38;;;3.14;100.00
36828;BME280;22766;48.042;11.192;2023-02-24T08:17:18;94236.91;;;3.29;100.00
36828;BME280;22766;48.042;11.192;2023-02-24T08:19:47;94225.19;;;3.47;100.00
36828;BME280;22766;48.042;11.192;2023-02-24T08:22:16;94229.13;;;3.61;100.00
36828;BME280;22766;48.042;11.192;2023-02-24T08:24:56;94226.50;;;3.82;100.00
36828;BME280;22766;48.042;11.192;2023-02-24T08:27:27;94229.78;;;3.93;100.00
36828;BME280;22766;48.042;11.192;2023-02-24T08:29:59;94223.19;;;4.00;100.00
36828;BME280;22766;48.042;11.192;2023-02-24T08:32:40;94228.19;;;4.11;100.00
36828;BME280;22766;48.042;11.192;2023-02-24T08:35:13;94217.44;;;4.27;100.00
36828;BME280;22766;48.042;11.192;2023-02-24T08:37:42;94224.16;;;4.47;100.00
36828;BME280;22766;48.042;11.192;2023-02-24T08:40:22;94212.88;;;4.68;100.00
36828;BME280;22766;48.042;11.192;2023-02-24T08:43:00;94210.16;;;4.89;100.00
36828;BME280;22766;48.042;11.192;2023-02-24T08:45:42;94211.81;;;5.17;100.00
36828;BME280;22766;48.042;11.192;2023-02-24T08:48:14;94211.41;;;5.31;100.00
36828;BME280;22766;48.042;11.192;2023-02-24T08:50:55;94209.03;;;5.47;100.00
36828;BME280;22766;48.042;11.192;2023-02-24T08:53:23;94197.66;;;5.59;100.00
36828;BME280;22766;48.042;11.192;2023-02-24T08:55:55;94194.69;;;5.91;100.00
36828;BME280;22766;48.042;11.192;2023-02-24T08:58:21;94199.34;;;6.05;100.00
36828;BME280;22766;48.042;11.192;2023-02-24T09:00:57;94191.66;;;6.05;100.00
36828;BME280;22766;48.042;11.192;2023-02-24T09:03:27;94189.72;;;6.34;100.00
36828;BME280;22766;48.042;11.192;2023-02-24T09:08:33;94180.56;;;6.49;100.00
36828;BME280;22766;48.042;11.192;2023-02-24T09:11:01;94178.59;;;7.12;100.00
36828;BME280;22766;48.042;11.192;2023-02-24T09:13:37;94170.56;;;7.83;100.00
36828;BME280;22766;48.042;11.192;2023-02-24T09:16:18;94167.44;;;8.05;100.00
36828;BME280;22766;48.042;11.192;2023-02-24T09:18:46;94156.84;;;8.16;100.00
36828;BME280;22766;48.042;11.192;2023-02-24T09:21:32;94160.94;;;8.34;100.00
36828;BME280;22766;48.042;11.192;2023-02-24T09:24:15;94156.28;;;8.54;100.00
36828;BME280;22766;48.042;11.192;2023-02-24T09:26:53;94156.13;;;8.80;100.00
36828;BME280;22766;48.042;11.192;2023-02-24T09:29:24;94151.28;;;8.36;100.00
36828;BME280;22766;48.042;11.192;2023-02-24T09:32:01;94141.16;;;8.35;100.00
36828;BME280;22766;48.042;11.192;2023-02-24T09:34:35;94146.50;;;8.74;100.00
36828;BME280;22766;48.042;11.192;2023-02-24T09:37:03;94141.34;;;8.66;100.00
36828;BME280;22766;48.042;11.192;2023-02-24T09:39:34;94137.63;;;8.76;100.00
36828;BME280;22766;48.042;11.192;2023-02-24T09:42:30;94139.72;;;8.65;100.00
36828;BME280;22766;48.042;11.192;2023-02-24T09:45:19;94136.06;;;9.38;100.00
36828;BME280;22766;48.042;11.192;2023-02-24T09:48:06;94130.13;;;10.07;100.00
36828;BME280;22766;48.042;11.192;2023-02-24T09:50:37;94125.72;;;10.46;100.00
36828;BME280;22766;48.042;11.192;2023-02-24T09:53:33;94116.16;;;11.06;100.00
36828;BME280;22766;48.042;11.192;2023-02-24T09:56:09;94120.34;;;10.70;100.00
36828;BME280;22766;48.042;11.192;2023-02-24T09:58:50;94112.47;;;10.26;100.00
36828;BME280;22766;48.042;11.192;2023-02-24T10:07:06;94099.06;;;10.31;100.00
36828;BME280;22766;48.042;11.192;2023-02-24T10:09:37;94093.97;;;10.97;100.00
36828;BME280;22766;48.042;11.192;2023-02-24T10:14:56;94085.16;;;11.50;99.40
36828;BME280;22766;48.042;11.192;2023-02-24T10:17:56;94081.16;;;11.33;93.72
36828;BME280;22766;48.042;11.192;2023-02-24T10:20:25;94084.72;;;11.17;97.51
36828;BME280;22766;48.042;11.192;2023-02-24T10:26:05;94074.91;;;10.98;98.21
36828;BME280;22766;48.042;11.192;2023-02-24T10:28:37;94081.06;;;10.97;100.00
36828;BME280;22766;48.042;11.192;2023-02-24T10:31:16;94068.75;;;11.28;97.03
36828;BME280;22766;48.042;11.192;2023-02-24T10:34:03;94069.94;;;11.26;93.63
36828;BME280;22766;48.042;11.192;2023-02-24T10:36:34;94067.34;;;11.41;90.57
36828;BME280;22766;48.042;11.192;2023-02-24T10:39:13;94069.50;;;11.22;92.70
36828;BME280;22766;48.042;11.192;2023-02-24T10:41:50;94063.25;;;11.32;93.14
36828;BME280;22766;48.042;11.192;2023-02-24T10:44:25;94061.81;;;11.29;93.65
36828;BME280;22766;48.042;11.192;2023-02-24T10:47:11;94061.19;;;11.42;89.66
36828;BME280;22766;48.042;11.192;2023-02-24T10:49:43;94053.34;;;11.35;90.94
36828;BME280;22766;48.042;11.192;2023-02-24T10:55:40;94042.13;;;11.13;97.11
36828;BME280;22766;48.042;11.192;2023-02-24T10:58:33;94041.31;;;10.98;98.43
36828;BME280;22766;48.042;11.192;2023-02-24T11:01:29;94050.03;;;10.83;97.87
36828;BME280;22766;48.042;11.192;2023-02-24T11:04:12;94038.22;;;10.37;98.24
36828;BME280;22766;48.042;11.192;2023-02-24T11:07:10;94037.38;;;10.21;100.00
36828;BME280;22766;48.042;11.192;2023-02-24T11:09:39;94033.63;;;10.24;100.00
36828;BME280;22766;48.042;11.192;2023-02-24T11:12:21;94031.06;;;10.24;100.00
36828;BME280;22766;48.042;11.192;2023-02-24T11:17:59;94011.81;;;10.49;100.00
36828;BME280;22766;48.042;11.192;2023-02-24T11:20:34;94012.69;;;10.42;100.00
36828;BME280;22766;48.042;11.192;2023-02-24T11:23:19;94005.38;;;10.08;100.00
36828;BME280;22766;48.042;11.192;2023-02-24T11:25:51;94002.47;;;10.11;100.00
36828;BME280;22766;48.042;11.192;2023-02-24T11:42:36;93972.53;;;10.24;100.00
36828;BME280;22766;48.042;11.192;2023-02-24T11:48:01;93960.25;;;10.26;100.00
36828;BME280;22766;48.042;11.192;2023-02-24T11:53:01;93950.59;;;10.72;100.00
36828;BME280;22766;48.042;11.192;2023-02-24T11:55:36;93953.81;;;10.60;100.00
36828;BME280;22766;48.042;11.192;2023-02-24T11:58:17;93948.63;;;10.45;100.00
36828;BME280;22766;48.042;11.192;2023-02-24T12:03:48;93932.38;;;10.88;99.46
36828;BME280;22766;48.042;11.192;2023-02-24T12:06:26;93927.28;;;10.66;99.63
36828;BME280;22766;48.042;11.192;2023-02-24T12:09:00;93931.81;;;10.34;100.00
36828;BME280;22766;48.042;11.192;2023-02-24T12:11:34;93925.59;;;10.29;100.00
36828;BME280;22766;48.042;11.192;2023-02-24T12:17:12;93918.03;;;10.42;100.00
36828;BME280;22766;48.042;11.192;2023-02-24T12:22:39;93916.66;;;10.31;100.00
36828;BME280;22766;48.042;11.192;2023-02-24T12:25:12;93911.88;;;10.28;100.00
36828;BME280;22766;48.042;11.192;2023-02-24T12:30:32;93912.13;;;10.19;100.00
36828;BME280;22766;48.042;11.192;2023-02-24T12:39:34;93892.31;;;10.63;100.00
36828;BME280;22766;48.042;11.192;2023-02-24T12:42:14;93886.94;;;10.94;100.00
36828;BME280;22766;48.042;11.192;2023-02-24T12:45:03;93886.13;;;10.93;100.00
36828;BME280;22766;48.042;11.192;2023-02-24T12:47:48;93885.97;;;10.80;100.00
36828;BME280;22766;48.042;11.192;2023-02-24T12:53:12;93879.63;;;10.83;100.00
36828;BME280;22766;48.042;11.192;2023-02-24T12:55:59;93870.16;;;10.54;100.00
36828;BME280;22766;48.042;11.192;2023-02-24T12:58:35;93860.88;;;10.74;100.00
36828;BME280;22766;48.042;11.192;2023-02-24T13:01:27;93862.84;;;10.72;100.00
36828;BME280;22766;48.042;11.192;2023-02-24T13:09:23;93857.03;;;11.20;100.00
36828;BME280;22766;48.042;11.192;2023-02-24T13:12:19;93850.31;;;11.05;100.00
36828;BME280;22766;48.042;11.192;2023-02-24T13:14:53;93848.97;;;10.94;100.00
36828;BME280;22766;48.042;11.192;2023-02-24T13:17:22;93845.44;;;10.95;100.00
36828;BME280;22766;48.042;11.192;2023-02-24T13:19:51;93842.91;;;11.02;100.00
36828;BME280;22766;48.042;11.192;2023-02-24T13:29:50;93833.03;;;11.05;100.00
36828;BME280;22766;48.042;11.192;2023-02-24T13:34:56;93819.50;;;11.03;100.00
36828;BME280;22766;48.042;11.192;2023-02-24T13:37:29;93815.88;;;10.98;100.00
36828;BME280;22766;48.042;11.192;2023-02-24T13:39:57;93814.50;;;10.81;100.00
36828;BME280;22766;48.042;11.192;2023-02-24T13:42:30;93812.44;;;10.76;100.00
36828;BME280;22766;48.042;11.192;2023-02-24T13:56:45;93804.84;;;10.39;100.00
36828;BME280;22766;48.042;11.192;2023-02-24T14:02:28;93797.84;;;10.33;100.00
36828;BME280;22766;48.042;11.192;2023-02-24T14:04:58;93790.09;;;10.18;100.00
36828;BME280;22766;48.042;11.192;2023-02-24T14:07:32;93791.19;;;10.09;100.00
36828;BME280;22766;48.042;11.192;2023-02-24T14:10:03;93790.16;;;9.96;100.00
36828;BME280;22766;48.042;11.192;2023-02-24T14:12:33;93792.47;;;10.05;100.00
36828;BME280;22766;48.042;11.192;2023-02-24T14:15:02;93793.75;;;10.09;100.00
36828;BME280;22766;48.042;11.192;2023-02-24T14:17:30;93793.03;;;10.01;100.00
36828;BME280;22766;48.042;11.192;2023-02-24T14:22:54;93787.22;;;9.70;100.00
36828;BME280;22766;48.042;11.192;2023-02-24T14:25:22;93781.00;;;9.79;100.00
36828;BME280;22766;48.042;11.192;2023-02-24T14:27:51;93771.94;;;9.83;100.00
36828;BME280;22766;48.042;11.192;2023-02-24T14:30:22;93763.88;;;9.86;100.00
36828;BME280;22766;48.042;11.192;2023-02-24T14:32:49;93761.63;;;9.97;100.00
36828;BME280;22766;48.042;11.192;2023-02-24T14:35:44;93751.78;;;10.01;100.00
36828;BME280;22766;48.042;11.192;2023-02-24T14:38:35;93749.72;;;9.96;100.00
36828;BME280;22766;48.042;11.192;2023-02-24T14:41:17;93752.19;;;9.90;100.00
36828;BME280;22766;48.042;11.192;2023-02-24T14:43:45;93754.53;;;9.85;100.00
36828;BME280;22766;48.042;11.192;2023-02-24T14:46:11;93756.56;;;9.75;100.00
36828;BME280;22766;48.042;11.192;2023-02-24T14:48:38;93765.53;;;9.64;100.00
36828;BME280;22766;48.042;11.192;2023-02-24T14:51:09;93761.25;;;9.71;100.00
36828;BME280;22766;48.042;11.192;2023-02-24T14:53:44;93762.69;;;9.74;100.00
36828;BME280;22766;48.042;11.192;2023-02-24T14:56:13;93744.31;;;9.91;100.00
36828;BME280;22766;48.042;11.192;2023-02-24T14:58:42;93737.19;;;10.08;100.00
36828;BME280;22766;48.042;11.192;2023-02-24T15:03:56;93737.13;;;10.52;100.00
36828;BME280;22766;48.042;11.192;2023-02-24T15:06:30;93732.53;;;10.32;100.00
36828;BME280;22766;48.042;11.192;2023-02-24T15:09:00;93731.88;;;10.09;100.00
36828;BME280;22766;48.042;11.192;2023-02-24T15:11:30;93724.03;;;9.88;100.00
36828;BME280;22766;48.042;11.192;2023-02-24T15:14:02;93725.25;;;9.63;100.00
36828;BME280;22766;48.042;11.192;2023-02-24T15:16:39;93731.94;;;9.58;100.00
36828;BME280;22766;48.042;11.192;2023-02-24T15:19:24;93724.38;;;9.56;100.00
36828;BME280;22766;48.042;11.192;2023-02-24T15:21:53;93719.03;;;9.58;100.00
36828;BME280;22766;48.042;11.192;2023-02-24T15:24:31;93717.38;;;9.65;100.00
36828;BME280;22766;48.042;11.192;2023-02-24T15:27:26;93720.84;;;9.57;100.00
36828;BME280;22766;48.042;11.192;2023-02-24T15:30:07;93718.34;;;9.49;100.00
36828;BME280;22766;48.042;11.192;2023-02-24T15:33:01;93703.69;;;9.50;100.00
36828;BME280;22766;48.042;11.192;2023-02-24T15:35:30;93699.22;;;9.73;100.00
36828;BME280;22766;48.042;11.192;2023-02-24T15:37:59;93685.56;;;9.72;100.00